Time;durP1;ratioP1;P1;durP2;ratioP2;P2;SDS_P1;SDS_P2;PMS_P1;PMS_P2;Temp;Humidity;BMP_temperature;BMP_pressure;BME280_temperature;BME280_humidity;BME280_pressure;Samples;Min_cycle;Max_cycle;Signal;HPM_P1;HPM_P2
2021/04/08 00:01:06;;;;;;;;;;;102.90;1945.60;;;;;;5018653;28;19909;-83
2021/04/08 00:03:32;;;;;;;;;;;102.80;1971.20;;;;;;5004535;28;19905;-86
2021/04/08 00:05:57;;;;;;;;;;;102.80;1971.20;;;;;;5020334;28;19947;-87
2021/04/08 00:08:23;;;;;;;;;;;102.80;1971.20;;;;;;5012817;28;19979;-82
2021/04/08 00:10:48;;;;;;;;;;;102.90;1971.20;;;;;;5005972;28;19912;-84
2021/04/08 00:13:14;;;;;;;;;;;103.00;1945.60;;;;;;5009234;28;19906;-85
2021/04/08 00:15:39;;;;;;;;;;;102.90;1971.20;;;;;;5016059;28;19912;-86
2021/04/08 00:18:05;;;;;;;;;;;102.90;1996.80;;;;;;5004976;28;20432;-86
2021/04/08 00:20:30;;;;;;;;;;;102.80;1996.80;;;;;;5007421;28;19921;-87
2021/04/08 00:22:56;;;;;;;;;;;102.80;1996.80;;;;;;5016760;28;20353;-86
2021/04/08 00:25:22;;;;;;;;;;;102.80;1996.80;;;;;;5024933;28;19905;-84
2021/04/08 00:27:47;;;;;;;;;;;102.80;1996.80;;;;;;5014091;28;19910;-86
2021/04/08 00:30:13;;;;;;;;;;;102.80;1996.80;;;;;;5015373;28;19956;-86
2021/04/08 00:32:39;;;;;;;;;;;102.50;2022.40;;;;;;5005946;28;19905;-87
2021/04/08 00:35:05;;;;;;;;;;;102.50;2048.00;;;;;;5027210;28;20000;-87
2021/04/08 00:37:31;;;;;;;;;;;102.50;2048.00;;;;;;5015147;28;19913;-87
2021/04/08 00:39:57;;;;;;;;;;;102.40;2048.00;;;;;;5008087;28;19905;-87
2021/04/08 00:42:22;;;;;;;;;;;77.60;2099.20;;;;;;5008709;28;19913;-85
2021/04/08 00:44:48;;;;;;;;;;;102.50;2048.00;;;;;;5009302;28;19945;-86
2021/04/08 00:47:13;;;;;;;;;;;102.40;2048.00;;;;;;5003572;28;20025;-86
2021/04/08 00:49:39;;;;;;;;;;;102.40;2048.00;;;;;;5007841;28;19925;-88
2021/04/08 00:52:05;;;;;;;;;;;102.50;2048.00;;;;;;5006049;28;19919;-85
2021/04/08 00:54:30;;;;;;;;;;;77.70;2048.00;;;;;;5021287;28;19972;-88
2021/04/08 00:56:56;;;;;;;;;;;77.60;2073.60;;;;;;5015965;28;19912;-87
2021/04/08 00:59:22;;;;;;;;;;;77.60;2073.60;;;;;;5014816;28;19965;-85
2021/04/08 01:01:48;;;;;;;;;;;102.40;2073.60;;;;;;5008412;28;19914;-86
2021/04/08 01:04:14;;;;;;;;;;;77.70;2073.60;;;;;;5005559;28;19912;-86
2021/04/08 01:06:40;;;;;;;;;;;102.40;2048.00;;;;;;5007976;28;19959;-85
2021/04/08 01:09:05;;;;;;;;;;;77.50;2073.60;;;;;;5015214;28;19905;-87
2021/04/08 01:11:31;;;;;;;;;;;77.50;2073.60;;;;;;5006745;28;19932;-86
2021/04/08 01:13:57;;;;;;;;;;;77.50;2073.60;;;;;;5007828;28;20057;-86
2021/04/08 01:16:37;;;;;;;;;;;77.40;2124.80;;;;;;5007680;28;19912;-86
2021/04/08 01:19:14;;;;;;;;;;;77.40;2099.20;;;;;;5004701;28;20024;-85
2021/04/08 01:21:45;;;;;;;;;;;77.40;2099.20;;;;;;5007510;28;19922;-86
2021/04/08 01:24:19;;;;;;;;;;;77.50;2099.20;;;;;;5008512;28;19913;-87
2021/04/08 01:27:04;;;;;;;;;;;77.40;2099.20;;;;;;5012833;28;19906;-86
2021/04/08 01:29:44;;;;;;;;;;;77.60;2048.00;;;;;;5009040;28;19906;-87
2021/04/08 01:32:10;;;;;;;;;;;77.70;2048.00;;;;;;5012302;28;19988;-86
2021/04/08 01:34:39;;;;;;;;;;;77.70;2048.00;;;;;;5014016;28;19949;-86
2021/04/08 01:37:07;;;;;;;;;;;77.70;2048.00;;;;;;5005930;28;20392;-84
2021/04/08 01:39:33;;;;;;;;;;;102.40;2022.40;;;;;;5007323;28;19967;-85
2021/04/08 01:41:59;;;;;;;;;;;77.70;2022.40;;;;;;5004041;28;19923;-86
2021/04/08 01:44:25;;;;;;;;;;;102.50;2022.40;;;;;;5023034;28;19913;-87
2021/04/08 01:47:04;;;;;;;;;;;102.50;2022.40;;;;;;5003165;28;19941;-87
2021/04/08 01:49:31;;;;;;;;;;;77.50;2048.00;;;;;;5011608;28;19917;-86
2021/04/08 01:51:57;;;;;;;;;;;102.40;2048.00;;;;;;5007075;28;20007;-86
2021/04/08 01:54:25;;;;;;;;;;;77.70;2022.40;;;;;;5020073;28;19905;-88
2021/04/08 01:56:52;;;;;;;;;;;102.40;2022.40;;;;;;5022669;28;19905;-87
2021/04/08 01:59:18;;;;;;;;;;;77.70;2048.00;;;;;;5022179;28;20365;-83
2021/04/08 02:01:44;;;;;;;;;;;102.40;2022.40;;;;;;5022290;28;19960;-87
2021/04/08 02:04:10;;;;;;;;;;;102.50;2022.40;;;;;;5007700;28;19952;-84
2021/04/08 02:06:36;;;;;;;;;;;102.60;1996.80;;;;;;5006110;28;19906;-83
2021/04/08 02:09:03;;;;;;;;;;;102.50;1996.80;;;;;;5012118;28;19913;-88
2021/04/08 02:11:30;;;;;;;;;;;102.50;1996.80;;;;;;5013460;28;19906;-88
2021/04/08 02:13:56;;;;;;;;;;;102.60;1971.20;;;;;;5020408;28;19906;-88
2021/04/08 02:16:22;;;;;;;;;;;102.60;1996.80;;;;;;5004183;28;20308;-87
2021/04/08 02:18:48;;;;;;;;;;;102.50;1996.80;;;;;;5006849;28;19931;-88
2021/04/08 02:21:14;;;;;;;;;;;102.40;1996.80;;;;;;5020738;28;19952;-88
2021/04/08 02:23:41;;;;;;;;;;;102.40;1996.80;;;;;;5004319;28;19947;-85
2021/04/08 02:26:10;;;;;;;;;;;102.40;1996.80;;;;;;5022061;28;19905;-86
2021/04/08 02:28:36;;;;;;;;;;;77.70;2022.40;;;;;;5009675;28;19905;-87
2021/04/08 02:31:02;;;;;;;;;;;77.60;2048.00;;;;;;5014174;28;20025;-88
2021/04/08 02:33:29;;;;;;;;;;;77.60;2048.00;;;;;;5008025;28;19936;-88
2021/04/08 02:35:55;;;;;;;;;;;77.50;2048.00;;;;;;5020390;28;19906;-86
2021/04/08 02:38:24;;;;;;;;;;;77.60;2048.00;;;;;;5003968;28;19906;-88
2021/04/08 02:40:50;;;;;;;;;;;77.60;2048.00;;;;;;5006300;28;19948;-88
2021/04/08 02:43:16;;;;;;;;;;;77.70;2048.00;;;;;;5005017;28;19905;-87
2021/04/08 02:45:41;;;;;;;;;;;77.60;2048.00;;;;;;5007057;28;19945;-85
2021/04/08 02:48:08;;;;;;;;;;;77.50;2073.60;;;;;;5003930;28;20370;-87
2021/04/08 02:50:34;;;;;;;;;;;77.50;2073.60;;;;;;5010656;28;19913;-86
2021/04/08 02:53:18;;;;;;;;;;;77.50;2073.60;;;;;;5018932;28;19913;-86
2021/04/08 02:55:46;;;;;;;;;;;77.50;2073.60;;;;;;5023868;28;19905;-86
2021/04/08 02:58:14;;;;;;;;;;;77.40;2073.60;;;;;;5013337;28;19916;-85
2021/04/08 03:00:41;;;;;;;;;;;77.40;2073.60;;;;;;5005227;28;19913;-87
2021/04/08 03:03:07;;;;;;;;;;;77.40;2073.60;;;;;;5012010;28;19929;-87
2021/04/08 03:05:37;;;;;;;;;;;77.40;2073.60;;;;;;5005120;28;19910;-87
2021/04/08 03:08:04;;;;;;;;;;;77.40;2073.60;;;;;;5012791;28;19912;-87
2021/04/08 03:10:30;;;;;;;;;;;77.50;2073.60;;;;;;5002700;28;19905;-84
2021/04/08 03:12:57;;;;;;;;;;;77.40;2073.60;;;;;;5001998;28;20281;-87
2021/04/08 03:15:26;;;;;;;;;;;77.50;2073.60;;;;;;5004662;28;19969;-86
2021/04/08 03:17:52;;;;;;;;;;;77.40;2073.60;;;;;;5021898;28;19918;-85
2021/04/08 03:20:18;;;;;;;;;;;77.30;2099.20;;;;;;5005548;28;19945;-89
2021/04/08 03:22:45;;;;;;;;;;;77.30;2099.20;;;;;;5002848;28;19913;-83
2021/04/08 03:25:11;;;;;;;;;;;77.30;2099.20;;;;;;5000003;28;19960;-87
2021/04/08 03:27:37;;;;;;;;;;;77.30;2099.20;;;;;;5012452;28;19906;-90
2021/04/08 03:30:04;;;;;;;;;;;77.40;2073.60;;;;;;5023091;28;20416;-90
2021/04/08 03:32:29;;;;;;;;;;;77.40;2073.60;;;;;;5003027;28;19909;-89
2021/04/08 03:34:55;;;;;;;;;;;77.40;2073.60;;;;;;5003581;28;19997;-89
2021/04/08 03:37:21;;;;;;;;;;;77.20;2099.20;;;;;;5002676;28;20372;-91
2021/04/08 03:39:47;;;;;;;;;;;77.30;2099.20;;;;;;5013331;28;19999;-90
2021/04/08 03:42:13;;;;;;;;;;;77.30;2099.20;;;;;;5007453;28;19918;-89
2021/04/08 03:44:38;;;;;;;;;;;77.30;2099.20;;;;;;5012214;28;20313;-84
2021/04/08 03:47:05;;;;;;;;;;;77.30;2099.20;;;;;;5007122;28;19913;-88
2021/04/08 03:49:31;;;;;;;;;;;77.30;2099.20;;;;;;5002920;28;19917;-90
2021/04/08 03:51:57;;;;;;;;;;;77.40;2073.60;;;;;;5017509;28;20332;-88
2021/04/08 03:54:23;;;;;;;;;;;77.30;2073.60;;;;;;5009938;28;19952;-88
2021/04/08 03:56:50;;;;;;;;;;;77.30;2073.60;;;;;;5010290;28;20001;-88
2021/04/08 03:59:17;;;;;;;;;;;77.40;2073.60;;;;;;5009622;28;19910;-87
2021/04/08 04:01:43;;;;;;;;;;;77.40;2048.00;;;;;;5013004;28;19921;-89
2021/04/08 04:04:09;;;;;;;;;;;77.40;2048.00;;;;;;5003646;28;19964;-88
2021/04/08 04:06:37;;;;;;;;;;;77.30;2073.60;;;;;;5018108;28;20020;-87
2021/04/08 04:09:06;;;;;;;;;;;77.40;2048.00;;;;;;5005233;28;19960;-89
2021/04/08 04:11:32;;;;;;;;;;;77.40;2048.00;;;;;;5005304;28;19913;-86
2021/04/08 04:14:00;;;;;;;;;;;77.40;2048.00;;;;;;5013119;28;19975;-90
2021/04/08 04:16:26;;;;;;;;;;;77.30;2048.00;;;;;;5014127;28;19960;-89
2021/04/08 04:18:52;;;;;;;;;;;77.20;2073.60;;;;;;5009632;28;19914;-90
2021/04/08 04:21:17;;;;;;;;;;;77.20;2048.00;;;;;;5019754;28;20413;-88
2021/04/08 04:23:43;;;;;;;;;;;77.10;2073.60;;;;;;5004686;28;19955;-89
2021/04/08 04:26:09;;;;;;;;;;;77.20;2073.60;;;;;;5027051;28;20349;-90
2021/04/08 04:28:34;;;;;;;;;;;77.00;2073.60;;;;;;5029318;28;19913;-88
2021/04/08 04:31:00;;;;;;;;;;;77.10;2073.60;;;;;;5013905;28;20004;-90
2021/04/08 04:33:25;;;;;;;;;;;77.10;2073.60;;;;;;5014377;28;20258;-88
2021/04/08 04:35:54;;;;;;;;;;;77.00;2073.60;;;;;;5009350;28;19910;-88
2021/04/08 04:38:20;;;;;;;;;;;77.10;2073.60;;;;;;5003707;28;19913;-88
2021/04/08 04:40:45;;;;;;;;;;;77.10;2073.60;;;;;;5014072;28;19905;-86
2021/04/08 04:43:11;;;;;;;;;;;77.20;2073.60;;;;;;5009749;28;19910;-88
2021/04/08 04:45:36;;;;;;;;;;;77.20;2073.60;;;;;;5012026;28;19909;-88
2021/04/08 04:48:02;;;;;;;;;;;77.20;2073.60;;;;;;4994350;28;20358;-87
2021/04/08 04:50:28;;;;;;;;;;;77.10;2099.20;;;;;;5021617;28;19953;-88
2021/04/08 04:52:53;;;;;;;;;;;77.20;2073.60;;;;;;5029390;28;19906;-88
2021/04/08 04:55:19;;;;;;;;;;;77.10;2099.20;;;;;;5003921;28;19960;-87
2021/04/08 04:57:45;;;;;;;;;;;77.10;2099.20;;;;;;4998938;28;19928;-86
2021/04/08 05:00:11;;;;;;;;;;;77.20;2073.60;;;;;;5033145;28;20004;-85
2021/04/08 05:02:36;;;;;;;;;;;77.30;2073.60;;;;;;5016273;28;19918;-86
2021/04/08 05:05:02;;;;;;;;;;;77.20;2073.60;;;;;;5017391;28;20318;-87
2021/04/08 05:07:28;;;;;;;;;;;77.20;2099.20;;;;;;5018712;28;20016;-93
2021/04/08 05:09:53;;;;;;;;;;;77.30;2073.60;;;;;;5018390;28;19941;-89
2021/04/08 05:12:19;;;;;;;;;;;77.30;2099.20;;;;;;5032823;28;20273;-88
2021/04/08 05:14:44;;;;;;;;;;;77.40;2073.60;;;;;;5010588;28;19956;-88
2021/04/08 05:17:10;;;;;;;;;;;77.30;2099.20;;;;;;5032490;28;19905;-83
2021/04/08 05:19:36;;;;;;;;;;;77.30;2099.20;;;;;;5016345;28;19914;-88
2021/04/08 05:22:01;;;;;;;;;;;77.30;2124.80;;;;;;5011218;28;19918;-88
2021/04/08 05:24:27;;;;;;;;;;;77.30;2124.80;;;;;;5016991;28;19932;-84
2021/04/08 05:26:52;;;;;;;;;;;77.50;2099.20;;;;;;5025860;28;19928;-87
2021/04/08 05:29:18;;;;;;;;;;;77.50;2099.20;;;;;;5012418;28;20365;-86
2021/04/08 05:31:43;;;;;;;;;;;77.60;2099.20;;;;;;5007058;28;19912;-87
2021/04/08 05:34:09;;;;;;;;;;;77.70;2099.20;;;;;;5013825;28;19960;-84
2021/04/08 05:36:35;;;;;;;;;;;102.40;2099.20;;;;;;5008053;28;19916;-89
2021/04/08 05:39:00;;;;;;;;;;;102.50;2073.60;;;;;;5010361;28;19905;-78
2021/04/08 05:41:26;;;;;;;;;;;102.50;2073.60;;;;;;5005942;28;20362;-84
2021/04/08 05:43:51;;;;;;;;;;;102.60;2073.60;;;;;;5023284;28;19914;-88
2021/04/08 05:46:17;;;;;;;;;;;102.70;2048.00;;;;;;5018514;28;19905;-85
2021/04/08 05:48:43;;;;;;;;;;;102.80;2048.00;;;;;;5013874;28;19921;-86
2021/04/08 05:51:08;;;;;;;;;;;102.80;2048.00;;;;;;5012271;28;19925;-87
2021/04/08 05:53:34;;;;;;;;;;;102.80;2022.40;;;;;;5026106;28;19960;-91
2021/04/08 05:55:59;;;;;;;;;;;102.80;2022.40;;;;;;5021344;28;20380;-85
2021/04/08 05:58:25;;;;;;;;;;;102.90;2022.40;;;;;;5005295;28;19992;-82
2021/04/08 06:00:50;;;;;;;;;;;103.00;2022.40;;;;;;5014108;28;19972;-93
2021/04/08 06:03:16;;;;;;;;;;;103.10;2022.40;;;;;;5013761;28;19953;-88
2021/04/08 06:05:42;;;;;;;;;;;103.10;1996.80;;;;;;5033003;28;19909;-83
2021/04/08 06:08:07;;;;;;;;;;;103.10;2022.40;;;;;;5030711;28;19905;-92
2021/04/08 06:10:33;;;;;;;;;;;103.20;2022.40;;;;;;5006012;28;19912;-81
2021/04/08 06:12:59;;;;;;;;;;;128.10;1996.80;;;;;;5019408;28;19921;-80
2021/04/08 06:15:25;;;;;;;;;;;103.20;1971.20;;;;;;5014432;28;20277;-83
2021/04/08 06:17:50;;;;;;;;;;;103.30;1996.80;;;;;;5022575;28;19910;-82
2021/04/08 06:20:16;;;;;;;;;;;128.20;1996.80;;;;;;5011670;28;19914;-80
2021/04/08 06:22:42;;;;;;;;;;;128.10;1996.80;;;;;;5022465;28;19913;-83
2021/04/08 06:25:08;;;;;;;;;;;128.20;1971.20;;;;;;5000237;28;19912;-93
2021/04/08 06:27:35;;;;;;;;;;;128.00;1971.20;;;;;;5027049;28;19912;-89
2021/04/08 06:30:04;;;;;;;;;;;128.10;2022.40;;;;;;5009073;28;20312;-84
2021/04/08 06:32:30;;;;;;;;;;;128.30;1971.20;;;;;;5015307;28;19950;-92
2021/04/08 06:34:56;;;;;;;;;;;128.50;1996.80;;;;;;5012663;28;19972;-89
2021/04/08 06:37:21;;;;;;;;;;;128.40;1945.60;;;;;;5004617;28;20021;-80
2021/04/08 06:39:48;;;;;;;;;;;128.50;1945.60;;;;;;5008241;28;20358;-81
2021/04/08 06:42:17;;;;;;;;;;;128.70;1920.00;;;;;;5009321;28;20293;-82
2021/04/08 06:44:46;;;;;;;;;;;128.70;1920.00;;;;;;5003705;28;19992;-89
2021/04/08 06:47:12;;;;;;;;;;;128.70;1920.00;;;;;;5005605;28;20000;-84
2021/04/08 06:49:46;;;;;;;;;;;128.80;1945.60;;;;;;5004825;28;19955;-83
2021/04/08 06:52:12;;;;;;;;;;;153.70;1894.40;;;;;;5010880;28;20272;-89
2021/04/08 06:54:38;;;;;;;;;;;153.80;1843.20;;;;;;5030301;28;19909;-93
2021/04/08 06:57:04;;;;;;;;;;;154.00;1817.60;;;;;;5013439;28;19905;-91
2021/04/08 06:59:31;;;;;;;;;;;154.10;1843.20;;;;;;5021821;28;19913;-84
2021/04/08 07:01:58;;;;;;;;;;;154.20;1792.00;;;;;;5006329;28;19914;-78
2021/04/08 07:04:23;;;;;;;;;;;154.40;1792.00;;;;;;5001105;28;20369;-87
2021/04/08 07:06:50;;;;;;;;;;;179.30;1766.40;;;;;;5013822;28;19917;-86
2021/04/08 07:09:16;;;;;;;;;;;179.20;1740.80;;;;;;5014672;28;19906;-82
2021/04/08 07:11:41;;;;;;;;;;;154.50;1740.80;;;;;;5029849;28;19912;-83
2021/04/08 07:14:09;;;;;;;;;;;179.30;1766.40;;;;;;5030176;28;19928;-86
2021/04/08 07:16:35;;;;;;;;;;;179.60;1740.80;;;;;;5030186;28;19928;-84
2021/04/08 07:19:01;;;;;;;;;;;179.90;1689.60;;;;;;5007604;28;19909;-80
2021/04/08 07:21:31;;;;;;;;;;;179.60;1638.40;;;;;;4994107;28;19949;-92
2021/04/08 07:24:10;;;;;;;;;;;180.00;1612.80;;;;;;5004569;28;19909;-89
2021/04/08 07:26:52;;;;;;;;;;;179.90;1638.40;;;;;;5009452;28;19960;-87
2021/04/08 07:29:22;;;;;;;;;;;180.00;1612.80;;;;;;5010220;28;20063;-85
2021/04/08 07:31:47;;;;;;;;;;;180.10;1612.80;;;;;;5011318;28;19905;-87
2021/04/08 07:34:30;;;;;;;;;;;180.10;1689.60;;;;;;5014664;28;19912;-84
2021/04/08 07:36:56;;;;;;;;;;;204.90;1587.20;;;;;;5010599;28;19932;-91
2021/04/08 07:39:21;;;;;;;;;;;205.00;1536.00;;;;;;5012961;28;19905;-90
2021/04/08 07:42:02;;;;;;;;;;;205.20;1510.40;;;;;;5004238;28;19923;-93
2021/04/08 07:44:28;;;;;;;;;;;205.30;1510.40;;;;;;4995317;28;19913;-82
2021/04/08 07:46:54;;;;;;;;;;;205.40;1459.20;;;;;;4994875;28;19910;-85
2021/04/08 07:49:32;;;;;;;;;;;205.50;1484.80;;;;;;5023484;28;20029;-80
2021/04/08 07:52:13;;;;;;;;;;;205.60;1408.00;;;;;;4996537;28;19920;-88
2021/04/08 07:54:39;;;;;;;;;;;205.70;1408.00;;;;;;4995693;28;19917;-84
2021/04/08 07:57:05;;;;;;;;;;;205.70;1331.20;;;;;;5013178;28;19905;-81
2021/04/08 07:59:30;;;;;;;;;;;205.70;1254.40;;;;;;5009907;28;19993;-83
2021/04/08 08:02:01;;;;;;;;;;;230.40;1305.60;;;;;;5013661;28;19924;-82
2021/04/08 08:04:27;;;;;;;;;;;230.40;1126.40;;;;;;5011574;28;19927;-82
2021/04/08 08:06:53;;;;;;;;;;;230.50;1203.20;;;;;;5013289;28;19917;-87
2021/04/08 08:09:20;;;;;;;;;;;230.50;1254.40;;;;;;5013490;28;19960;-80
2021/04/08 08:11:47;;;;;;;;;;;230.40;1305.60;;;;;;5010964;28;19905;-81
2021/04/08 08:14:13;;;;;;;;;;;230.70;1228.80;;;;;;5028499;28;19928;-83
2021/04/08 08:16:38;;;;;;;;;;;230.60;1228.80;;;;;;5007574;28;20353;-81
2021/04/08 08:19:04;;;;;;;;;;;230.70;1228.80;;;;;;5012086;28;19917;-79
2021/04/08 08:21:37;;;;;;;;;;;230.80;1203.20;;;;;;5013067;28;20370;-82
2021/04/08 08:24:07;;;;;;;;;;;230.80;1152.00;;;;;;5011958;28;19952;-83
2021/04/08 08:26:32;;;;;;;;;;;230.80;1075.20;;;;;;5028754;28;20380;-79
2021/04/08 08:29:01;;;;;;;;;;;230.70;1126.40;;;;;;5012979;28;19952;-79
2021/04/08 08:31:33;;;;;;;;;;;230.90;1126.40;;;;;;5014699;28;20412;-79
2021/04/08 08:33:58;;;;;;;;;;;230.90;1100.80;;;;;;5016989;28;19905;-81
2021/04/08 08:36:24;;;;;;;;;;;231.10;1177.60;;;;;;5011226;28;20000;-80
2021/04/08 08:38:50;;;;;;;;;;;231.20;1126.40;;;;;;4997418;28;19906;-80
2021/04/08 08:41:16;;;;;;;;;;;231.00;1126.40;;;;;;5024964;28;19909;-79
2021/04/08 08:43:42;;;;;;;;;;;231.10;1152.00;;;;;;5010761;28;19996;-78
2021/04/08 08:46:07;;;;;;;;;;;256.00;1100.80;;;;;;5016502;28;19945;-78
2021/04/08 08:48:33;;;;;;;;;;;256.00;1049.60;;;;;;5011266;28;19944;-79
2021/04/08 08:50:58;;;;;;;;;;;256.00;972.80;;;;;;5015874;28;20328;-78
2021/04/08 08:53:24;;;;;;;;;;;256.10;998.40;;;;;;5031226;28;19910;-79
2021/04/08 08:55:51;;;;;;;;;;;256.00;998.40;;;;;;5014850;28;19905;-79
2021/04/08 08:58:16;;;;;;;;;;;256.00;1100.80;;;;;;5010106;28;19905;-82
2021/04/08 09:00:42;;;;;;;;;;;256.20;1075.20;;;;;;5014448;28;19947;-80
2021/04/08 09:03:08;;;;;;;;;;;256.10;998.40;;;;;;5007185;28;19921;-81
2021/04/08 09:05:35;;;;;;;;;;;256.20;1049.60;;;;;;5017505;28;19985;-77
2021/04/08 09:08:06;;;;;;;;;;;256.30;998.40;;;;;;5010302;28;19906;-77
2021/04/08 09:10:36;;;;;;;;;;;231.30;998.40;;;;;;5016564;28;20007;-79
2021/04/08 09:13:02;;;;;;;;;;;231.30;1049.60;;;;;;5009786;28;19912;-80
2021/04/08 09:15:27;;;;;;;;;;;231.10;1024.00;;;;;;5016418;28;19909;-81
2021/04/08 09:17:56;;;;;;;;;;;231.20;1024.00;;;;;;5016321;28;19932;-81
2021/04/08 09:20:22;;;;;;;;;;;231.30;947.20;;;;;;5014575;28;20031;-79
2021/04/08 09:22:58;;;;;;;;;;;256.00;998.40;;;;;;5008147;28;19936;-82
2021/04/08 09:25:34;;;;;;;;;;;231.30;1049.60;;;;;;5007179;28;19913;-79
2021/04/08 09:28:01;;;;;;;;;;;256.10;1024.00;;;;;;5016124;28;20364;-79
2021/04/08 09:30:48;;;;;;;;;;;256.10;947.20;;;;;;5031245;28;19906;-78
2021/04/08 09:33:13;;;;;;;;;;;256.20;921.60;;;;;;5007040;28;19964;-78
2021/04/08 09:35:39;;;;;;;;;;;256.50;998.40;;;;;;5006554;28;19909;-84
2021/04/08 09:38:05;;;;;;;;;;;256.50;896.00;;;;;;5004359;28;19915;-80
2021/04/08 09:40:33;;;;;;;;;;;256.70;921.60;;;;;;4999907;28;19910;-77
2021/04/08 09:43:09;;;;;;;;;;;256.60;947.20;;;;;;5009545;28;19976;-79
2021/04/08 09:45:35;;;;;;;;;;;256.50;921.60;;;;;;4996567;28;19906;-78
2021/04/08 09:48:13;;;;;;;;;;;256.50;921.60;;;;;;5004643;28;19909;-77
2021/04/08 09:50:42;;;;;;;;;;;256.40;921.60;;;;;;5029454;28;19924;-81
2021/04/08 09:53:08;;;;;;;;;;;256.10;1024.00;;;;;;5013003;28;19909;-84
2021/04/08 09:55:34;;;;;;;;;;;256.00;998.40;;;;;;5029020;28;19905;-79
2021/04/08 09:58:00;;;;;;;;;;;256.10;1024.00;;;;;;5029097;28;19912;-78
2021/04/08 10:00:26;;;;;;;;;;;256.70;998.40;;;;;;5007135;28;20008;-82
2021/04/08 10:02:59;;;;;;;;;;;256.60;972.80;;;;;;5006902;28;20369;-80
2021/04/08 10:05:29;;;;;;;;;;;256.40;998.40;;;;;;5021065;28;19913;-81
2021/04/08 10:07:55;;;;;;;;;;;256.40;998.40;;;;;;5018363;28;19996;-78
2021/04/08 10:10:24;;;;;;;;;;;256.30;844.80;;;;;;5152086;23;1053819;-80
2021/04/08 10:12:50;;;;;;;;;;;256.20;870.40;;;;;;5053247;28;20011;-76
2021/04/08 10:15:17;;;;;;;;;;;256.30;844.80;;;;;;5045766;28;20000;-82
2021/04/08 10:17:43;;;;;;;;;;;281.70;819.20;;;;;;5054907;28;19936;-82
2021/04/08 10:20:09;;;;;;;;;;;282.30;870.40;;;;;;5064841;28;20371;-78
2021/04/08 10:22:41;;;;;;;;;;;282.30;819.20;;;;;;5063738;28;19912;-80
2021/04/08 10:25:07;;;;;;;;;;;307.20;844.80;;;;;;5046262;28;19909;-78
2021/04/08 10:27:33;;;;;;;;;;;282.10;896.00;;;;;;5059011;28;19957;-79
2021/04/08 10:29:58;;;;;;;;;;;281.90;844.80;;;;;;5059562;28;19904;-80
2021/04/08 10:32:32;;;;;;;;;;;281.70;896.00;;;;;;5062156;28;19905;-77
2021/04/08 10:34:57;;;;;;;;;;;256.90;896.00;;;;;;5043657;28;19911;-77
2021/04/08 10:37:23;;;;;;;;;;;281.70;972.80;;;;;;5061782;28;19905;-77
2021/04/08 10:39:49;;;;;;;;;;;282.00;896.00;;;;;;5056521;28;20352;-80
2021/04/08 10:42:14;;;;;;;;;;;281.70;972.80;;;;;;5064049;28;19974;-79
2021/04/08 10:44:44;;;;;;;;;;;281.60;947.20;;;;;;5054527;28;19912;-80
2021/04/08 10:47:14;;;;;;;;;;;282.20;896.00;;;;;;5061465;28;19958;-82
2021/04/08 10:49:42;;;;;;;;;;;307.20;947.20;;;;;;5074523;28;20030;-83
2021/04/08 10:52:12;;;;;;;;;;;307.80;870.40;;;;;;5074442;28;19904;-83
2021/04/08 10:54:38;;;;;;;;;;;308.10;819.20;;;;;;5071239;28;19911;-82
2021/04/08 10:57:04;;;;;;;;;;;307.80;819.20;;;;;;5063332;28;19927;-77
2021/04/08 10:59:31;;;;;;;;;;;308.10;819.20;;;;;;5056413;28;19908;-78
2021/04/08 11:01:58;;;;;;;;;;;333.10;870.40;;;;;;5068592;28;19920;-78
2021/04/08 11:04:24;;;;;;;;;;;333.00;819.20;;;;;;5053908;28;19905;-78
2021/04/08 11:06:51;;;;;;;;;;;332.80;819.20;;;;;;5053599;28;19905;-78
2021/04/08 11:09:22;;;;;;;;;;;333.20;819.20;;;;;;5053667;28;19958;-78
2021/04/08 11:11:48;;;;;;;;;;;333.30;793.60;;;;;;5035534;28;19929;-78
2021/04/08 11:14:23;;;;;;;;;;;333.50;768.00;;;;;;5053651;28;19918;-78
2021/04/08 11:16:50;;;;;;;;;;;333.50;768.00;;;;;;5053484;28;19954;-77
2021/04/08 11:19:16;;;;;;;;;;;333.30;793.60;;;;;;5053769;28;19948;-78
2021/04/08 11:21:42;;;;;;;;;;;333.20;819.20;;;;;;5057313;28;19979;-76
2021/04/08 11:24:08;;;;;;;;;;;333.30;793.60;;;;;;5060864;28;19908;-79
2021/04/08 11:26:45;;;;;;;;;;;333.50;793.60;;;;;;5056985;28;19955;-78
2021/04/08 11:29:10;;;;;;;;;;;358.40;768.00;;;;;;5052093;28;19915;-78
2021/04/08 11:31:36;;;;;;;;;;;358.50;793.60;;;;;;5053409;28;19905;-79
2021/04/08 11:34:01;;;;;;;;;;;358.50;768.00;;;;;;5035678;28;20372;-81
2021/04/08 11:36:27;;;;;;;;;;;333.70;793.60;;;;;;5051820;28;19905;-78
2021/04/08 11:38:53;;;;;;;;;;;333.60;819.20;;;;;;5053405;28;19906;-80
2021/04/08 11:41:19;;;;;;;;;;;333.20;870.40;;;;;;5053246;28;20280;-79
2021/04/08 11:43:46;;;;;;;;;;;332.80;870.40;;;;;;5052803;28;19912;-79
2021/04/08 11:46:31;;;;;;;;;;;308.10;819.20;;;;;;5035782;28;20443;-77
2021/04/08 11:48:57;;;;;;;;;;;332.80;870.40;;;;;;5053608;28;19908;-78
2021/04/08 11:51:28;;;;;;;;;;;307.70;921.60;;;;;;5052473;28;19943;-86
2021/04/08 11:53:54;;;;;;;;;;;307.90;921.60;;;;;;5059901;28;20264;-81
2021/04/08 11:56:24;;;;;;;;;;;333.00;972.80;;;;;;5066639;28;19912;-83
2021/04/08 11:58:50;;;;;;;;;;;308.00;870.40;;;;;;5063601;28;19909;-80
2021/04/08 12:01:16;;;;;;;;;;;332.90;972.80;;;;;;5057154;28;19904;-82
2021/04/08 12:03:43;;;;;;;;;;;333.40;896.00;;;;;;5052308;28;19970;-84
2021/04/08 12:06:09;;;;;;;;;;;333.70;844.80;;;;;;5056262;28;20386;-88
2021/04/08 12:08:38;;;;;;;;;;;358.50;844.80;;;;;;5060065;28;19908;-85
2021/04/08 12:11:04;;;;;;;;;;;358.40;896.00;;;;;;5057478;28;20331;-83
2021/04/08 12:13:29;;;;;;;;;;;332.90;896.00;;;;;;5056111;28;19913;-86
2021/04/08 12:15:55;;;;;;;;;;;308.10;896.00;;;;;;5058183;28;19962;-88
2021/04/08 12:18:24;;;;;;;;;;;307.70;947.20;;;;;;5057378;28;19908;-83
2021/04/08 12:20:51;;;;;;;;;;;307.90;947.20;;;;;;5054552;28;19905;-84
2021/04/08 12:23:19;;;;;;;;;;;307.70;921.60;;;;;;5056248;28;19959;-82
2021/04/08 12:25:49;;;;;;;;;;;307.70;921.60;;;;;;5057307;28;19909;-84
2021/04/08 12:28:15;;;;;;;;;;;307.50;921.60;;;;;;5039083;28;19911;-77
2021/04/08 12:30:56;;;;;;;;;;;307.30;998.40;;;;;;5040204;28;20326;-77
2021/04/08 12:33:22;;;;;;;;;;;282.50;998.40;;;;;;5050043;28;20570;-81
2021/04/08 12:35:48;;;;;;;;;;;282.20;998.40;;;;;;5056750;28;19923;-82
2021/04/08 12:38:14;;;;;;;;;;;282.10;972.80;;;;;;5056855;28;19904;-78
2021/04/08 12:40:40;;;;;;;;;;;282.10;972.80;;;;;;5038905;28;20374;-81
2021/04/08 12:43:06;;;;;;;;;;;282.20;972.80;;;;;;5038590;28;19999;-79
2021/04/08 12:45:32;;;;;;;;;;;282.20;998.40;;;;;;5056590;28;19905;-79
2021/04/08 12:47:57;;;;;;;;;;;282.10;998.40;;;;;;5071490;28;19908;-79
2021/04/08 12:50:23;;;;;;;;;;;282.10;1024.00;;;;;;5058258;28;19982;-77
2021/04/08 12:52:49;;;;;;;;;;;281.90;1049.60;;;;;;5056928;28;20042;-77
2021/04/08 12:55:15;;;;;;;;;;;281.60;1100.80;;;;;;5054683;28;20344;-81
2021/04/08 12:57:40;;;;;;;;;;;281.60;1100.80;;;;;;5055792;28;19916;-81
2021/04/08 13:00:06;;;;;;;;;;;281.70;1126.40;;;;;;5055523;28;19905;-77
2021/04/08 13:02:32;;;;;;;;;;;281.80;1100.80;;;;;;5054480;28;19912;-77
2021/04/08 13:04:57;;;;;;;;;;;282.00;1075.20;;;;;;5056120;28;19904;-79
2021/04/08 13:07:24;;;;;;;;;;;282.10;1049.60;;;;;;5056364;28;19911;-77
2021/04/08 13:09:49;;;;;;;;;;;282.20;1049.60;;;;;;5054289;28;20275;-77
2021/04/08 13:12:18;;;;;;;;;;;282.10;1024.00;;;;;;5053992;28;19909;-78
2021/04/08 13:14:43;;;;;;;;;;;282.10;1024.00;;;;;;5057034;28;20022;-77
2021/04/08 13:17:09;;;;;;;;;;;282.10;1049.60;;;;;;5054134;28;19915;-82
2021/04/08 13:19:35;;;;;;;;;;;281.90;1075.20;;;;;;5054299;28;19944;-80
2021/04/08 13:22:00;;;;;;;;;;;281.70;1075.20;;;;;;5062174;28;19917;-84
2021/04/08 13:24:26;;;;;;;;;;;256.90;1049.60;;;;;;5054778;28;19912;-82
2021/04/08 13:26:52;;;;;;;;;;;256.00;1228.80;;;;;;5058188;28;20658;-83
2021/04/08 13:29:17;;;;;;;;;;;231.00;1305.60;;;;;;5037731;28;19908;-86
2021/04/08 13:31:43;;;;;;;;;;;230.40;1408.00;;;;;;5054428;28;20332;-75
2021/04/08 13:34:08;;;;;;;;;;;205.70;1484.80;;;;;;5052283;28;19905;-75
2021/04/08 13:36:34;;;;;;;;;;;205.40;1510.40;;;;;;5057925;28;19905;-76
2021/04/08 13:38:59;;;;;;;;;;;205.40;1510.40;;;;;;5065614;28;19949;-76
2021/04/08 13:41:25;;;;;;;;;;;205.30;1561.60;;;;;;5066195;28;20320;-76
2021/04/08 13:43:51;;;;;;;;;;;205.50;1536.00;;;;;;5052505;28;19909;-75
2021/04/08 13:46:16;;;;;;;;;;;230.80;1459.20;;;;;;5075465;28;19931;-76